<?xml version="1.0" encoding="UTF-8" standalone="no" ?>
<gpx xmlns="http://www.topografix.com/GPX/1/1" xmlns:xsi="http://www.w3.org/2001/XMLSchema-instance" xsi:schemaLocation="http://www.topografix.com/GPX/1/1 http://www.topografix.com/GPX/1/1/gpx.xsd" version="1.1" creator="VisuGPX - https://www.visugpx.com">
  <metadata>
    <name>Rialle_Autour_8-22km</name>
    <desc><![CDATA[gnerando idor:6722432_8173011_8173016_12476141_12476155_12511586_12530915_12533090_13050648]]></desc>
  </metadata>
  <wpt lat="47.55079" lon="-1.37723">
    <ele>56.1</ele>
    <name><![CDATA[0000725]]></name>
    <type><![CDATA[Point de départ]]></type>
  </wpt>
  <wpt lat="47.52565" lon="-1.40637">
    <ele>31.3</ele>
    <name><![CDATA[0000726]]></name>
    <desc><![CDATA[<p><br /><h3>Nom: Segment: 1</h3><br />Heure de départ: 05/30/2021 09:30<br/>Heure d'arrivée: 05/30/2021 12:31<br/>Distance: 15,3km (03:00)<br/>Temps déplacement: 02:45<br/>Vitesse moyenne: 5,07 km/h<br/>Vitesse moyenne mouv.: 5,52 km/h<br/>Vitesse Max.: 20,75 km/h<br/>Altitude minimale: 29 m<br/>Altitude maximale: 61 m<br/>Vitesse de montée: 135,3 m/h<br/>Vitesse de descente: -132,1 m/h<br/>Gain d'altitude: 143 m<br/>Perte d'altitude: -165 m<br/>Temps de montée: 01:03<br/>Temps de descente: 01:15<br/></p>]]></desc>
    <type><![CDATA[Point d'arrivée]]></type>
  </wpt>
  <wpt lat="47.52578" lon="-1.40648">
    <ele>31.5</ele>
    <name><![CDATA[0000727]]></name>
    <type><![CDATA[Point de départ]]></type>
  </wpt>
  <wpt lat="47.55083" lon="-1.37712">
    <ele>56.4</ele>
    <name><![CDATA[0000728]]></name>
    <desc><![CDATA[<p><br /><h3>Nom: Segment: 2</h3><br />Heure de départ: 05/30/2021 13:12<br/>Heure d'arrivée: 05/30/2021 14:32<br/>Distance: 6,7km (01:19)<br/>Temps déplacement: 01:16<br/>Vitesse moyenne: 5,05 km/h<br/>Vitesse moyenne mouv.: 5,23 km/h<br/>Vitesse Max.: 8,06 km/h<br/>Altitude minimale: 34 m<br/>Altitude maximale: 68 m<br/>Vitesse de montée: 179 m/h<br/>Vitesse de descente: -145,6 m/h<br/>Gain d'altitude: 102 m<br/>Perte d'altitude: -77 m<br/>Temps de montée: 00:34<br/>Temps de descente: 00:32<br/></p>]]></desc>
    <type><![CDATA[Point d'arrivée]]></type>
  </wpt>
  <trk>
    <name><![CDATA[Riaille_ProvostiereMelleray_12.5km-8173011]]></name>
    <extensions>
      <line xmlns="http://www.topografix.com/GPX/gpx_style/0/2">
        <color>0000FF</color>
        <width>4</width>
      </line>
    </extensions>
    <trkseg>
      <trkpt lat="47.5252" lon="-1.34702">
        <ele>33</ele>
        <time>2023-11-11T19:04:17Z</time>
      </trkpt>
      <trkpt lat="47.5256" lon="-1.34956">
        <ele>36</ele>
        <time>2023-11-11T19:08:12Z</time>
      </trkpt>
      <trkpt lat="47.52685" lon="-1.3517">
        <ele>37</ele>
        <time>2023-11-11T19:12:27Z</time>
      </trkpt>
      <trkpt lat="47.52743" lon="-1.35419">
        <ele>36</ele>
        <time>2023-11-11T19:16:24Z</time>
      </trkpt>
      <trkpt lat="47.53224" lon="-1.35921">
        <ele>56</ele>
        <time>2023-11-11T19:29:30Z</time>
      </trkpt>
      <trkpt lat="47.53424" lon="-1.36393">
        <ele>50</ele>
        <time>2023-11-11T19:37:52Z</time>
      </trkpt>
      <trkpt lat="47.53934" lon="-1.35775">
        <ele>56</ele>
        <time>2023-11-11T19:52:31Z</time>
      </trkpt>
      <trkpt lat="47.53986" lon="-1.36131">
        <ele>53</ele>
        <time>2023-11-11T19:57:59Z</time>
      </trkpt>
      <trkpt lat="47.53942" lon="-1.36346">
        <ele>49</ele>
        <time>2023-11-11T20:01:21Z</time>
      </trkpt>
      <trkpt lat="47.54029" lon="-1.36385">
        <ele>47</ele>
        <time>2023-11-11T20:03:23Z</time>
      </trkpt>
      <trkpt lat="47.54026" lon="-1.36552">
        <ele>45</ele>
        <time>2023-11-11T20:05:53Z</time>
      </trkpt>
      <trkpt lat="47.5407" lon="-1.36702">
        <ele>44</ele>
        <time>2023-11-11T20:08:21Z</time>
      </trkpt>
      <trkpt lat="47.54163" lon="-1.36818">
        <ele>41</ele>
        <time>2023-11-11T20:11:03Z</time>
      </trkpt>
      <trkpt lat="47.54525" lon="-1.37114">
        <ele>44</ele>
        <time>2023-11-11T20:20:15Z</time>
      </trkpt>
      <trkpt lat="47.54733" lon="-1.37556">
        <ele>46</ele>
        <time>2023-11-11T20:28:20Z</time>
      </trkpt>
      <trkpt lat="47.55116" lon="-1.37561">
        <ele>60</ele>
        <time>2023-11-11T20:36:51Z</time>
      </trkpt>
      <trkpt lat="47.55119" lon="-1.37685">
        <ele>58</ele>
        <time>2023-11-11T20:38:43Z</time>
      </trkpt>
      <trkpt lat="47.54933" lon="-1.37775">
        <ele>55</ele>
        <time>2023-11-11T20:43:04Z</time>
      </trkpt>
      <trkpt lat="47.54898" lon="-1.37887">
        <ele>52</ele>
        <time>2023-11-11T20:44:55Z</time>
      </trkpt>
      <trkpt lat="47.54916" lon="-1.38054">
        <ele>51</ele>
        <time>2023-11-11T20:47:27Z</time>
      </trkpt>
      <trkpt lat="47.5469" lon="-1.38114">
        <ele>45</ele>
        <time>2023-11-11T20:52:34Z</time>
      </trkpt>
      <trkpt lat="47.54606" lon="-1.37917">
        <ele>44</ele>
        <time>2023-11-11T20:56:04Z</time>
      </trkpt>
      <trkpt lat="47.54461" lon="-1.38024">
        <ele>42</ele>
        <time>2023-11-11T20:59:40Z</time>
      </trkpt>
      <trkpt lat="47.54473" lon="-1.38226">
        <ele>44</ele>
        <time>2023-11-11T21:02:43Z</time>
      </trkpt>
      <trkpt lat="47.5387" lon="-1.38419">
        <ele>48</ele>
        <time>2023-11-11T21:16:26Z</time>
      </trkpt>
      <trkpt lat="47.5374" lon="-1.3844">
        <ele>49</ele>
        <time>2023-11-11T21:19:20Z</time>
      </trkpt>
      <trkpt lat="47.53696" lon="-1.38067">
        <ele>41</ele>
        <time>2023-11-11T21:25:01Z</time>
      </trkpt>
      <trkpt lat="47.53418" lon="-1.38148">
        <ele>38</ele>
        <time>2023-11-11T21:31:20Z</time>
      </trkpt>
      <trkpt lat="47.5336" lon="-1.37367">
        <ele>40</ele>
        <time>2023-11-11T21:43:07Z</time>
      </trkpt>
      <trkpt lat="47.53453" lon="-1.37226">
        <ele>39</ele>
        <time>2023-11-11T21:46:05Z</time>
      </trkpt>
      <trkpt lat="47.53511" lon="-1.36822">
        <ele>45</ele>
        <time>2023-11-11T21:52:17Z</time>
      </trkpt>
      <trkpt lat="47.53398" lon="-1.36398">
        <ele>50</ele>
        <time>2023-11-11T21:59:08Z</time>
      </trkpt>
      <trkpt lat="47.53221" lon="-1.35956">
        <ele>55</ele>
        <time>2023-11-11T22:06:51Z</time>
      </trkpt>
      <trkpt lat="47.52978" lon="-1.36535">
        <ele>52</ele>
        <time>2023-11-11T22:17:05Z</time>
      </trkpt>
      <trkpt lat="47.52676" lon="-1.36604">
        <ele>58</ele>
        <time>2023-11-11T22:23:53Z</time>
      </trkpt>
      <trkpt lat="47.5254" lon="-1.36848">
        <ele>50</ele>
        <time>2023-11-11T22:28:38Z</time>
      </trkpt>
      <trkpt lat="47.52134" lon="-1.36792">
        <ele>30</ele>
        <time>2023-11-11T22:37:42Z</time>
      </trkpt>
      <trkpt lat="47.52102" lon="-1.36672">
        <ele>28</ele>
        <time>2023-11-11T22:39:38Z</time>
      </trkpt>
      <trkpt lat="47.52178" lon="-1.36518">
        <ele>33</ele>
        <time>2023-11-11T22:42:30Z</time>
      </trkpt>
      <trkpt lat="47.52111" lon="-1.36367">
        <ele>28</ele>
        <time>2023-11-11T22:45:13Z</time>
      </trkpt>
      <trkpt lat="47.5216" lon="-1.35947">
        <ele>29</ele>
        <time>2023-11-11T22:51:37Z</time>
      </trkpt>
      <trkpt lat="47.52279" lon="-1.3581">
        <ele>32</ele>
        <time>2023-11-11T22:54:58Z</time>
      </trkpt>
      <trkpt lat="47.52279" lon="-1.35659">
        <ele>33</ele>
        <time>2023-11-11T22:57:14Z</time>
      </trkpt>
      <trkpt lat="47.52184" lon="-1.35509">
        <ele>31</ele>
        <time>2023-11-11T23:00:20Z</time>
      </trkpt>
      <trkpt lat="47.52291" lon="-1.3511">
        <ele>31</ele>
        <time>2023-11-11T23:06:47Z</time>
      </trkpt>
      <trkpt lat="47.52343" lon="-1.34827">
        <ele>28</ele>
        <time>2023-11-11T23:11:11Z</time>
      </trkpt>
      <trkpt lat="47.52517" lon="-1.34698">
        <ele>32</ele>
        <time>2023-11-11T23:15:31Z</time>
      </trkpt>
    </trkseg>
  </trk>
</gpx>